ニューヨーク/JFK の空港の天気 - METARとTAF

ジョン・F・ケネディ国際空港 ( KJFK / JFK ) - アメリカ合衆国 ニューヨーク州ニューヨーク
飛行場実況気象(Metar)
観測時間05/28 15:51 EDT (05/28 19:51 UTC)
風向・風速南東 6m/s
視程10km以上
天気現象
少しの雲 雲底高度 610m
少しの雲 雲底高度 2130m
全天の8割程度の雲 雲底高度 7620m
気温19.4℃
湿度71%
気圧1014hPa
METARKJFK 281951Z 13011KT 10SM FEW020 FEW070 BKN250 19/14 A2995 RMK AO2 SLP140 T01940139
過去の天気等 Google飛行場航空写真 Wunderground天気予報

過去48時間のMETAR

飛行場予報(TAF)
発表時間: 5/28 16:02 EDT (5/28 20:02 UTC)
予報対象時間: 28日16時 EDT ~ 29日20時 EDT
風向・風速南東 7m/s
視程10km以上
少しの雲 雲底高度 460m
全天の4割程度の雲 雲底高度 1,370m
全天の8割程度の雲 雲底高度 7,620m
28日20時 EDT から
風向・風速東南東 5m/s
視程10km以上
全天の4割程度の雲 雲底高度 460m
全天の8割程度の雲 雲底高度 1,520m
29日1時 EDT から
風向・風速東 5m/s 瞬間風速 8m/s
視程10km以上
天気現象弱い雨
全天を覆う雲 雲底高度 460m
29日5時 EDT から
風向・風速東 6m/s 瞬間風速 9m/s
視程8,050m
天気現象弱い雨
全天を覆う雲 雲底高度 210m
29日8時 EDT から
風向・風速東 7m/s 瞬間風速 10m/s
視程3,220m
天気現象
全天を覆う雲 雲底高度 210m
29日8時 EDT から 確率 30% で
天気現象弱い雷雨
全天の4割程度の雲 雲底高度 210m
全天の8割程度の積乱雲 雲底高度 460m
29日12時 EDT から
風向・風速東北東 4m/s
視程4,830m
天気現象弱い霧雨 もや
全天を覆う雲 雲底高度 150m
KJFK 282002Z 2820/2924 13013KT P6SM FEW015 SCT045 BKN250
FM290000 12010KT P6SM SCT015 BKN050
FM290500 09009G15KT P6SM -RA OVC015
FM290900 09012G18KT 5SM -RA OVC007
FM291200 08014G20KT 2SM RA OVC007
PROB30 2912/2916 -TSRA SCT007 BKN015CB
FM291600 06008KT 3SM -DZ BR OVC005